METAR Data
IDs: Format: Raw Decoded Include TAF

Data at: 0118 UTC 16 Jan 2019

METAR for:PASD (Sand Point Arpt, AK, US)
Text:PASD 160055Z VRB03KT 10SM BKN017 BKN028 OVC040 04/02 A2948
Temperature: 4.0°C ( 39°F)
Dewpoint: 2.0°C ( 36°F) [RH = 87%]
Pressure (altimeter):29.48 inches Hg ( 998.4 mb)
Winds:variable direction winds at 3 MPH (3 knots; 1.5 m/s)
Visibility:10 or more sm (16+ km)
Ceiling:1700 feet AGL
Clouds: broken clouds at 1700 feet AGL, broken clouds at 2800 feet AGL, overcast cloud deck at 4000 feet AGL
Text:PASD 160015Z VRB06KT 7SM -RA BKN014 OVC020 04/03 A2947 RMK AO2 PNO $
Temperature: 4.0°C ( 39°F)
Dewpoint: 3.0°C ( 37°F) [RH = 93%]
Pressure (altimeter):29.47 inches Hg ( 998.1 mb)
Winds:variable direction winds at 7 MPH (6 knots; 3.1 m/s)
Visibility: 7 sm ( 11 km)
Ceiling:1400 feet AGL
Clouds: broken clouds at 1400 feet AGL, overcast cloud deck at 2000 feet AGL
Weather:-RA (light rain)
QC Flag:SOME DATA ABOVE MAY BE INACCURATE!!!"$" is an indication the sensor requires maintenance.
Text:PASD 152356Z VRB06KT 7SM -RA SCT012 BKN016 OVC030 05/03 A2947 RMK AO2 SLP981 6//// T00500033 10056 20044 56005 PNO $
Temperature: 5.0°C ( 41°F)
Dewpoint: 3.3°C ( 38°F) [RH = 89%]
Pressure (altimeter):29.47 inches Hg ( 998.1 mb) [Sea level pressure: 998.1 mb]
Winds:variable direction winds at 7 MPH (6 knots; 3.1 m/s)
Visibility: 7 sm ( 11 km)
Ceiling:1600 feet AGL
Clouds: scattered clouds at 1200 feet AGL, broken clouds at 1600 feet AGL, overcast cloud deck at 3000 feet AGL
Weather:-RA (light rain)
QC Flag:SOME DATA ABOVE MAY BE INACCURATE!!!"$" is an indication the sensor requires maintenance.
Text:PASD 152332Z 05003KT 8SM -RA BKN014 OVC021 05/03 A2947 RMK AO2 PNO $
Temperature: 5.0°C ( 41°F)
Dewpoint: 3.0°C ( 37°F) [RH = 87%]
Pressure (altimeter):29.47 inches Hg ( 998.1 mb)
Winds:from the NE (50 degrees) at 3 MPH (3 knots; 1.5 m/s)
Visibility: 8 sm ( 13 km)
Ceiling:1400 feet AGL
Clouds: broken clouds at 1400 feet AGL, overcast cloud deck at 2100 feet AGL
Weather:-RA (light rain)
QC Flag:SOME DATA ABOVE MAY BE INACCURATE!!!"$" is an indication the sensor requires maintenance.
Text:PASD 152256Z VRB04KT 10SM -RA SCT015 BKN024 BKN050 06/03 A2947 RMK AO2 RAB49 SLP983 T00560033 PNO $
Temperature: 5.6°C ( 42°F)
Dewpoint: 3.3°C ( 38°F) [RH = 85%]
Pressure (altimeter):29.47 inches Hg ( 998.1 mb) [Sea level pressure: 998.3 mb]
Winds:variable direction winds at 5 MPH (4 knots; 2.1 m/s)
Visibility:10 or more sm (16+ km)
Ceiling:2400 feet AGL
Clouds: scattered clouds at 1500 feet AGL, broken clouds at 2400 feet AGL, broken clouds at 5000 feet AGL
Weather:-RA (light rain)
QC Flag:SOME DATA ABOVE MAY BE INACCURATE!!!"$" is an indication the sensor requires maintenance.
Text:PASD 152156Z VRB05KT 10SM BKN015 BKN024 BKN035 06/03 A2948 RMK AO2 RAE03 SLP984 T00560028 PNO $
Temperature: 5.6°C ( 42°F)
Dewpoint: 2.8°C ( 37°F) [RH = 82%]
Pressure (altimeter):29.48 inches Hg ( 998.4 mb) [Sea level pressure: 998.4 mb]
Winds:variable direction winds at 6 MPH (5 knots; 2.6 m/s)
Visibility:10 or more sm (16+ km)
Ceiling:1500 feet AGL
Clouds: broken clouds at 1500 feet AGL, broken clouds at 2400 feet AGL, broken clouds at 3500 feet AGL
QC Flag:SOME DATA ABOVE MAY BE INACCURATE!!!"$" is an indication the sensor requires maintenance.
Text:PASD 152056Z VRB04KT 7SM -RA FEW011 BKN015 OVC023 05/04 A2948 RMK AO2 SLP986 6//// T00500039 50012 PNO $
Temperature: 5.0°C ( 41°F)
Dewpoint: 3.9°C ( 39°F) [RH = 93%]
Pressure (altimeter):29.48 inches Hg ( 998.4 mb) [Sea level pressure: 998.6 mb]
Winds:variable direction winds at 5 MPH (4 knots; 2.1 m/s)
Visibility: 7 sm ( 11 km)
Ceiling:1500 feet AGL
Clouds: few clouds at 1100 feet AGL, broken clouds at 1500 feet AGL, overcast cloud deck at 2300 feet AGL
Weather:-RA (light rain)
QC Flag:SOME DATA ABOVE MAY BE INACCURATE!!!"$" is an indication the sensor requires maintenance.
Text:PASD 152022Z VRB05KT 10SM -RA BKN014 OVC021 05/04 A2948 RMK AO2 PNO $
Temperature: 5.0°C ( 41°F)
Dewpoint: 4.0°C ( 39°F) [RH = 93%]
Pressure (altimeter):29.48 inches Hg ( 998.4 mb)
Winds:variable direction winds at 6 MPH (5 knots; 2.6 m/s)
Visibility:10 or more sm (16+ km)
Ceiling:1400 feet AGL
Clouds: broken clouds at 1400 feet AGL, overcast cloud deck at 2100 feet AGL
Weather:-RA (light rain)
QC Flag:SOME DATA ABOVE MAY BE INACCURATE!!!"$" is an indication the sensor requires maintenance.

TAF for:PASD (Sand Point Arpt, AK, US) issued at 0103 UTC 16 Jan 2019
Text:PASD 160103Z 1601/1624 VRB03KT P6SM -RA SCT004 BKN024
Forecast period:0100 to 0900 UTC 16 January 2019
Forecast type:FROM: standard forecast or significant change
Winds:variable direction winds at 3 MPH (3 knots; 1.5 m/s)
Visibility:6 or more sm (10+ km)
Ceiling:2400 feet AGL
Clouds: scattered clouds at 400 feet AGL, broken clouds at 2400 feet AGL
Weather:-RA (light rain)
Text:TEMPO 1601/1604 5SM -SHRA BR BKN015
Forecast period:0100 to 0400 UTC 16 January 2019
Forecast type:TEMPORARY: The following changes expected for less than half the time period
Visibility: 5 sm ( 8 km)
Ceiling:1500 feet AGL
Clouds: broken clouds at 1500 feet AGL
Weather:-SHRA BR (light rain showers, mist)
Text:FM160900 36008KT 5SM -SHRASN BKN010
Forecast period:0900 to 2000 UTC 16 January 2019
Forecast type:FROM: standard forecast or significant change
Winds:from the N (360 degrees) at 9 MPH (8 knots; 4.1 m/s)
Visibility: 5 sm ( 8 km)
Ceiling:1000 feet AGL
Clouds: broken clouds at 1000 feet AGL
Weather:-SHRA -SHSN (light rain showers, light snow showers)
Text:FM162000 34010G15KT 6SM -RA BR BKN010
Forecast period:2000 UTC 16 January 2019 to 0000 UTC 17 January 2019
Forecast type:FROM: standard forecast or significant change
Winds:from the NNW (340 degrees) at 12 MPH (10 knots; 5.1 m/s) gusting to 17 MPH (15 knots; 7.7 m/s)
Visibility: 6 sm ( 10 km)
Ceiling:1000 feet AGL
Clouds: broken clouds at 1000 feet AGL
Weather:-RA BR (light rain, mist)